createdAt,value
2022-12-06T00:01:48.584Z,0.20
2022-12-06T00:04:18.359Z,0.10
2022-12-06T00:06:52.894Z,0.10
2022-12-06T00:09:24.859Z,0.10
2022-12-06T00:11:54.330Z,0.10
2022-12-06T00:14:23.897Z,0.10
2022-12-06T00:16:53.157Z,0.10
2022-12-06T00:19:24.891Z,0.20
2022-12-06T00:24:36.944Z,0.10
2022-12-06T00:27:05.798Z,0.10
2022-12-06T00:29:34.227Z,0.10
2022-12-06T00:32:02.877Z,0.10
2022-12-06T00:34:31.771Z,0.10
2022-12-06T00:37:00.498Z,0.00
2022-12-06T00:39:29.284Z,0.10
2022-12-06T00:41:58.210Z,0.00
2022-12-06T00:44:27.218Z,0.10
2022-12-06T00:46:55.966Z,0.00
2022-12-06T00:49:24.361Z,0.10
2022-12-06T00:51:53.215Z,0.10
2022-12-06T00:54:21.567Z,0.00
2022-12-06T00:56:49.765Z,0.00
2022-12-06T00:59:18.768Z,0.10
2022-12-06T01:01:47.306Z,0.10
2022-12-06T01:04:15.925Z,0.10
2022-12-06T01:06:44.596Z,0.00
2022-12-06T01:09:14.017Z,0.10
2022-12-06T01:11:42.802Z,0.10
2022-12-06T01:14:11.453Z,0.10
2022-12-06T01:16:40.195Z,0.10
2022-12-06T01:19:09.645Z,0.10
2022-12-06T01:21:38.403Z,0.10
2022-12-06T01:24:07.419Z,0.10
2022-12-06T01:26:37.511Z,0.10
2022-12-06T01:29:06.832Z,0.00
2022-12-06T01:31:38.803Z,0.10
2022-12-06T01:34:11.063Z,0.10
2022-12-06T01:36:39.450Z,0.10
2022-12-06T01:39:11.415Z,0.10
2022-12-06T01:41:40.924Z,0.20
2022-12-06T01:44:43.788Z,0.00
2022-12-06T01:47:35.403Z,0.10
2022-12-06T01:50:11.851Z,0.10
2022-12-06T01:55:18.261Z,0.10
2022-12-06T01:57:47.490Z,0.00
2022-12-06T02:00:16.529Z,0.00
2022-12-06T02:02:45.810Z,0.10
2022-12-06T02:05:16.945Z,0.10
2022-12-06T02:07:46.768Z,0.10
2022-12-06T02:10:15.442Z,0.00
2022-12-06T02:12:44.713Z,0.00
2022-12-06T02:15:13.810Z,0.10
2022-12-06T02:17:58.864Z,0.10
2022-12-06T02:20:38.230Z,0.10
2022-12-06T02:23:35.236Z,0.20
2022-12-06T02:26:12.818Z,0.20
2022-12-06T02:29:00.920Z,0.10
2022-12-06T02:31:41.353Z,0.10
2022-12-06T02:34:25.051Z,0.10
2022-12-06T02:37:05.458Z,0.20
2022-12-06T02:39:34.715Z,0.10
2022-12-06T02:42:12.935Z,0.20
2022-12-06T02:44:57.768Z,0.10
2022-12-06T02:47:36.406Z,0.20
2022-12-06T02:50:14.986Z,0.10
2022-12-06T02:52:46.472Z,0.10
2022-12-06T02:55:16.712Z,0.20
2022-12-06T02:57:48.765Z,0.20
2022-12-06T03:00:44.363Z,0.10
2022-12-06T03:03:34.798Z,0.20
2022-12-06T03:06:03.539Z,0.20
2022-12-06T03:08:56.293Z,0.10
2022-12-06T03:11:29.320Z,0.20
2022-12-06T03:14:02.275Z,0.20
2022-12-06T03:16:48.930Z,0.20
2022-12-06T03:19:28.224Z,0.20
2022-12-06T03:22:03.672Z,0.20
2022-12-06T03:24:36.298Z,0.20
2022-12-06T03:27:12.082Z,0.20
2022-12-06T03:29:47.062Z,0.20
2022-12-06T03:32:19.219Z,0.30
2022-12-06T03:34:52.205Z,0.20
2022-12-06T03:37:25.260Z,0.30
2022-12-06T03:40:19.891Z,0.30
2022-12-06T03:42:50.014Z,0.30
2022-12-06T03:45:20.011Z,0.30
2022-12-06T03:47:48.521Z,0.30
2022-12-06T03:50:58.362Z,0.30
2022-12-06T03:53:27.568Z,0.30
2022-12-06T03:55:56.435Z,0.30
2022-12-06T03:58:24.916Z,0.30
2022-12-06T04:00:53.822Z,0.40
2022-12-06T04:03:22.800Z,0.40
2022-12-06T04:05:51.446Z,0.50
2022-12-06T04:08:20.392Z,0.40
2022-12-06T04:10:49.043Z,0.40
2022-12-06T04:13:19.756Z,0.60
2022-12-06T04:15:49.064Z,0.40
2022-12-06T04:18:19.605Z,0.50
2022-12-06T04:21:17.648Z,0.60
2022-12-06T04:23:48.987Z,0.50
2022-12-06T04:26:20.180Z,0.50
2022-12-06T04:29:07.717Z,0.60
2022-12-06T04:31:54.881Z,0.70
2022-12-06T04:34:42.543Z,0.60
2022-12-06T04:37:29.773Z,0.80
2022-12-06T04:39:58.276Z,0.60
2022-12-06T04:42:45.212Z,0.60
2022-12-06T04:45:13.667Z,1.00
2022-12-06T04:47:41.867Z,0.60
2022-12-06T04:50:10.718Z,0.60
2022-12-06T04:52:39.321Z,0.50
2022-12-06T04:55:08.136Z,0.60
2022-12-06T04:57:36.829Z,0.60
2022-12-06T05:00:05.889Z,0.70
2022-12-06T05:02:34.489Z,0.60
2022-12-06T05:05:03.031Z,0.50
2022-12-06T05:07:31.961Z,0.80
2022-12-06T05:10:01.162Z,0.60
2022-12-06T05:12:29.819Z,0.70
2022-12-06T05:14:58.615Z,1.40
2022-12-06T05:17:27.212Z,0.80
2022-12-06T05:19:55.888Z,0.70
2022-12-06T05:22:24.806Z,0.80
2022-12-06T05:24:53.598Z,1.20
2022-12-06T05:27:22.207Z,0.80
2022-12-06T05:29:50.814Z,0.80
2022-12-06T05:32:19.439Z,0.80
2022-12-06T05:34:47.990Z,0.70
2022-12-06T05:37:16.698Z,0.70
2022-12-06T05:39:45.455Z,0.80
2022-12-06T05:42:22.148Z,0.80
2022-12-06T05:44:51.732Z,0.90
2022-12-06T05:47:20.263Z,0.70
2022-12-06T05:49:49.028Z,0.60
2022-12-06T05:52:18.003Z,0.80
2022-12-06T05:54:46.814Z,0.70
2022-12-06T05:57:15.430Z,0.60
2022-12-06T06:02:26.008Z,1.10
2022-12-06T06:04:54.576Z,0.80
2022-12-06T06:07:23.255Z,0.80
2022-12-06T06:09:51.642Z,0.70
2022-12-06T06:12:20.254Z,0.90
2022-12-06T06:14:48.427Z,0.80
2022-12-06T06:17:17.309Z,0.70
2022-12-06T06:19:51.142Z,0.60
2022-12-06T06:22:21.004Z,0.90
2022-12-06T06:24:49.779Z,0.60
2022-12-06T06:27:18.479Z,0.60
2022-12-06T06:29:46.865Z,0.60
2022-12-06T06:32:15.574Z,0.70
2022-12-06T06:34:44.268Z,0.60
2022-12-06T06:37:13.076Z,0.70
2022-12-06T06:39:41.795Z,0.70
2022-12-06T06:42:10.258Z,0.80
2022-12-06T06:44:38.864Z,0.80
2022-12-06T06:47:07.456Z,0.60
2022-12-06T06:49:35.964Z,1.30
2022-12-06T06:52:05.007Z,0.60
2022-12-06T06:54:33.707Z,0.60
2022-12-06T06:57:03.853Z,0.60
2022-12-06T06:59:32.767Z,0.90
2022-12-06T07:02:01.439Z,0.70
2022-12-06T07:04:29.818Z,0.60
2022-12-06T07:06:59.603Z,0.80
2022-12-06T07:09:28.224Z,1.40
2022-12-06T07:11:56.797Z,0.80
2022-12-06T07:14:25.778Z,1.30
2022-12-06T07:16:54.726Z,0.90
2022-12-06T07:19:23.330Z,1.50
2022-12-06T07:21:52.154Z,1.40
2022-12-06T07:24:20.866Z,1.00
2022-12-06T07:26:49.564Z,1.10
2022-12-06T07:29:18.348Z,1.70
2022-12-06T07:31:47.157Z,1.60
2022-12-06T07:34:15.729Z,1.30
2022-12-06T07:36:44.148Z,1.40
2022-12-06T07:39:14.930Z,1.10
2022-12-06T07:42:06.534Z,1.20
2022-12-06T07:44:58.369Z,1.40
2022-12-06T07:47:38.452Z,1.00
2022-12-06T07:50:15.984Z,0.90
2022-12-06T07:52:47.026Z,0.80
2022-12-06T07:55:16.509Z,0.90
2022-12-06T07:57:45.278Z,0.80
2022-12-06T08:00:17.123Z,0.70
2022-12-06T08:02:46.065Z,0.80
2022-12-06T08:05:15.592Z,0.90
2022-12-06T08:07:44.358Z,0.70
2022-12-06T08:10:13.330Z,0.70
2022-12-06T08:12:42.388Z,0.70
2022-12-06T08:15:14.258Z,0.90
2022-12-06T08:17:43.324Z,0.60
2022-12-06T08:20:13.285Z,0.60
2022-12-06T08:22:42.303Z,0.60
2022-12-06T08:25:11.608Z,0.60
2022-12-06T08:27:40.129Z,0.80
2022-12-06T08:30:10.215Z,0.60
2022-12-06T08:32:38.997Z,0.70
2022-12-06T08:35:07.760Z,0.60
2022-12-06T08:37:36.296Z,0.60
2022-12-06T08:40:05.550Z,0.50
2022-12-06T08:42:34.353Z,0.60
2022-12-06T08:45:03.398Z,0.60
2022-12-06T08:47:32.093Z,0.50
2022-12-06T08:50:01.246Z,0.50
2022-12-06T08:52:30.028Z,0.60
2022-12-06T08:54:58.621Z,0.50
2022-12-06T08:57:27.203Z,0.40
2022-12-06T08:59:56.579Z,0.70
2022-12-06T09:02:25.464Z,0.30
2022-12-06T09:04:54.241Z,0.50
2022-12-06T09:07:47.870Z,0.50
2022-12-06T09:10:16.671Z,0.40
2022-12-06T09:12:45.389Z,0.40
2022-12-06T09:15:14.053Z,0.40
2022-12-06T09:17:42.611Z,0.50
2022-12-06T09:20:12.158Z,0.60
2022-12-06T09:22:41.453Z,0.60
2022-12-06T09:25:10.200Z,0.50
2022-12-06T09:27:39.766Z,0.60
2022-12-06T09:30:09.122Z,0.60
2022-12-06T09:32:38.070Z,0.60
2022-12-06T09:35:09.699Z,0.60
2022-12-06T09:37:43.141Z,0.60
2022-12-06T09:40:29.075Z,0.60
2022-12-06T09:43:15.925Z,0.40
2022-12-06T09:46:09.739Z,0.50
2022-12-06T09:49:07.698Z,0.50
2022-12-06T09:51:55.415Z,0.40
2022-12-06T09:54:45.048Z,0.40
2022-12-06T09:57:40.954Z,0.40
2022-12-06T10:00:22.889Z,0.30
2022-12-06T10:03:03.890Z,0.30
2022-12-06T10:05:32.913Z,0.40
2022-12-06T10:08:16.000Z,0.30
2022-12-06T10:11:14.683Z,0.40
2022-12-06T10:14:05.277Z,0.40
2022-12-06T10:16:43.925Z,0.40
2022-12-06T10:19:46.312Z,0.30
2022-12-06T10:22:45.362Z,0.30
2022-12-06T10:25:17.298Z,0.30
2022-12-06T10:28:02.382Z,0.30
2022-12-06T10:30:31.682Z,0.40
2022-12-06T10:33:21.818Z,0.20
2022-12-06T10:36:00.522Z,0.20
2022-12-06T10:38:55.940Z,0.20
2022-12-06T10:41:38.243Z,0.30
2022-12-06T10:44:17.121Z,0.30
2022-12-06T10:47:26.411Z,0.20
2022-12-06T10:50:04.687Z,0.40
2022-12-06T10:53:10.358Z,0.20
2022-12-06T10:56:02.294Z,0.90
2022-12-06T10:59:05.758Z,0.30
2022-12-06T11:01:40.049Z,0.30
2022-12-06T11:04:18.019Z,0.40
2022-12-06T11:06:54.745Z,0.30
2022-12-06T11:09:50.660Z,0.20
2022-12-06T11:12:33.380Z,0.30
2022-12-06T11:15:27.914Z,0.40
2022-12-06T11:18:12.578Z,0.30
2022-12-06T11:20:57.713Z,0.40
2022-12-06T11:23:55.742Z,0.30
2022-12-06T11:26:24.386Z,0.40
2022-12-06T11:29:07.456Z,0.40
2022-12-06T11:31:45.295Z,0.40
2022-12-06T11:34:25.794Z,0.70
2022-12-06T11:37:00.180Z,0.30
2022-12-06T11:39:30.774Z,0.30
2022-12-06T11:42:03.326Z,0.40
2022-12-06T11:44:49.953Z,0.40
2022-12-06T11:47:22.992Z,0.40
2022-12-06T11:49:55.632Z,0.40
2022-12-06T11:52:29.913Z,0.60
2022-12-06T11:55:17.009Z,0.30
2022-12-06T11:58:05.001Z,0.30
2022-12-06T12:00:34.825Z,0.40
2022-12-06T12:03:03.300Z,0.30
2022-12-06T12:05:39.574Z,0.70
2022-12-06T12:08:18.373Z,0.30
2022-12-06T12:10:59.260Z,0.40
2022-12-06T12:13:49.369Z,0.20
2022-12-06T12:16:45.052Z,0.20
2022-12-06T12:19:34.966Z,0.20
2022-12-06T12:22:18.463Z,0.30
2022-12-06T12:27:48.888Z,0.30
2022-12-06T12:30:17.261Z,0.20
2022-12-06T12:32:47.771Z,0.20
2022-12-06T12:35:22.426Z,0.20
2022-12-06T12:37:56.556Z,0.20
2022-12-06T12:40:40.880Z,0.20
2022-12-06T12:43:21.614Z,0.30
2022-12-06T12:46:18.794Z,0.10
2022-12-06T12:48:49.093Z,0.20
2022-12-06T12:51:30.320Z,0.30
2022-12-06T12:54:26.234Z,0.20
2022-12-06T12:56:55.715Z,0.20
2022-12-06T12:59:27.742Z,0.20
2022-12-06T13:02:02.515Z,0.20
2022-12-06T13:04:59.808Z,0.20
2022-12-06T13:07:42.425Z,0.20
2022-12-06T13:10:27.864Z,0.20
2022-12-06T13:13:01.956Z,0.20
2022-12-06T13:15:36.281Z,0.20
2022-12-06T13:18:23.384Z,0.10
2022-12-06T13:20:53.860Z,0.20
2022-12-06T13:23:30.366Z,0.20
2022-12-06T13:26:03.837Z,0.10
2022-12-06T13:28:37.536Z,0.20
2022-12-06T13:31:12.951Z,0.40
2022-12-06T13:33:52.432Z,0.50
2022-12-06T13:36:22.994Z,0.60
2022-12-06T13:38:51.709Z,0.70
2022-12-06T13:42:00.285Z,0.60
2022-12-06T13:44:52.744Z,0.90
2022-12-06T13:47:50.345Z,0.90
2022-12-06T13:50:21.791Z,0.70
2022-12-06T13:52:50.350Z,1.00
2022-12-06T13:55:29.349Z,0.70
2022-12-06T14:01:40.061Z,0.60
2022-12-06T14:12:42.783Z,0.50
2022-12-06T14:15:19.975Z,0.50
2022-12-06T14:18:11.088Z,0.40
2022-12-06T14:20:37.338Z,0.50
2022-12-06T14:23:22.922Z,0.50
2022-12-06T14:25:51.643Z,0.50
2022-12-06T14:28:20.164Z,0.40
2022-12-06T14:30:49.137Z,0.70
2022-12-06T14:33:24.670Z,0.40
2022-12-06T14:35:55.181Z,0.40
2022-12-06T14:38:25.584Z,0.40
2022-12-06T14:41:13.167Z,0.40
2022-12-06T14:43:43.949Z,0.30
2022-12-06T14:46:15.916Z,0.40
2022-12-06T14:49:04.616Z,0.40
2022-12-06T14:51:39.495Z,0.30
2022-12-06T14:54:36.991Z,0.40
2022-12-06T14:57:05.805Z,0.30
2022-12-06T15:00:12.893Z,0.50
2022-12-06T15:02:28.690Z,0.50
2022-12-06T15:04:57.619Z,0.60
2022-12-06T15:07:44.871Z,0.50
2022-12-06T15:10:19.302Z,0.70
2022-12-06T15:12:56.922Z,0.80
2022-12-06T15:15:39.662Z,0.80
2022-12-06T15:18:35.988Z,0.90
2022-12-06T15:23:41.895Z,0.60
2022-12-06T15:26:13.972Z,0.60
2022-12-06T15:28:42.648Z,0.60
2022-12-06T15:31:23.817Z,0.50
2022-12-06T15:33:52.202Z,0.50
2022-12-06T15:36:27.048Z,0.40
2022-12-06T15:38:55.563Z,0.50
2022-12-06T15:41:27.419Z,0.40
2022-12-06T15:43:58.384Z,0.60
2022-12-06T15:46:29.560Z,0.50
2022-12-06T15:48:58.597Z,0.40
2022-12-06T15:51:28.301Z,0.70
2022-12-06T15:53:59.171Z,0.50
2022-12-06T15:56:31.253Z,0.50
2022-12-06T15:58:59.885Z,0.50
2022-12-06T16:01:33.799Z,0.60
2022-12-06T16:04:02.675Z,0.60
2022-12-06T16:06:31.770Z,0.60
2022-12-06T16:09:00.288Z,0.70
2022-12-06T16:11:28.633Z,0.60
2022-12-06T16:13:57.070Z,0.60
2022-12-06T16:16:25.731Z,0.40
2022-12-06T16:18:56.064Z,0.60
2022-12-06T16:21:38.333Z,0.50
2022-12-06T16:24:15.011Z,0.40
2022-12-06T16:26:45.888Z,0.50
2022-12-06T16:29:21.556Z,0.40
2022-12-06T16:31:50.403Z,0.50
2022-12-06T16:34:19.251Z,0.40
2022-12-06T16:37:02.961Z,0.50
2022-12-06T16:39:34.396Z,0.60
2022-12-06T16:42:04.747Z,0.50
2022-12-06T16:44:33.548Z,0.60
2022-12-06T16:47:02.173Z,1.40
2022-12-06T16:49:49.311Z,0.60
2022-12-06T16:52:18.709Z,0.50
2022-12-06T16:54:47.438Z,0.60
2022-12-06T16:57:16.334Z,0.60
2022-12-06T16:59:44.867Z,0.50
2022-12-06T17:02:34.156Z,0.60
2022-12-06T17:05:07.073Z,0.50
2022-12-06T17:07:37.056Z,0.50
2022-12-06T17:10:06.034Z,0.40
2022-12-06T17:12:34.874Z,0.90
2022-12-06T17:15:03.986Z,0.50
2022-12-06T17:17:32.927Z,0.50
2022-12-06T17:20:01.444Z,0.40
2022-12-06T17:22:30.001Z,0.40
2022-12-06T17:24:58.573Z,0.50
2022-12-06T17:27:27.484Z,0.40
2022-12-06T17:29:56.276Z,0.40
2022-12-06T17:32:25.262Z,0.50
2022-12-06T17:34:53.934Z,0.50
2022-12-06T17:37:22.733Z,0.40
2022-12-06T17:39:51.020Z,0.50
2022-12-06T17:42:38.116Z,0.40
2022-12-06T17:45:07.426Z,0.30
2022-12-06T17:47:35.799Z,0.50
2022-12-06T17:50:05.611Z,0.30
2022-12-06T17:52:34.648Z,0.30
2022-12-06T17:55:03.476Z,0.30
2022-12-06T17:57:32.307Z,0.30
2022-12-06T18:00:01.449Z,0.30
2022-12-06T18:02:29.878Z,0.30
2022-12-06T18:04:59.057Z,0.20
2022-12-06T18:07:28.108Z,0.20
2022-12-06T18:09:56.355Z,0.30
2022-12-06T18:12:25.816Z,0.20
2022-12-06T18:14:55.031Z,0.20
2022-12-06T18:17:23.616Z,0.10
2022-12-06T18:19:52.080Z,0.20
2022-12-06T18:22:21.366Z,0.20
2022-12-06T18:24:50.015Z,0.20
2022-12-06T18:27:19.930Z,0.10
2022-12-06T18:29:48.609Z,0.20
2022-12-06T18:32:17.552Z,0.20
2022-12-06T18:34:46.253Z,0.20
2022-12-06T18:37:14.769Z,0.30
2022-12-06T18:39:46.254Z,0.20
2022-12-06T18:42:14.979Z,0.30
2022-12-06T18:44:43.782Z,0.20
2022-12-06T18:47:12.501Z,0.20
2022-12-06T18:49:41.207Z,0.20
2022-12-06T18:52:09.787Z,0.20
2022-12-06T18:54:38.504Z,0.20
2022-12-06T18:57:08.242Z,0.30
2022-12-06T18:59:38.564Z,0.40
2022-12-06T19:02:07.271Z,0.20
2022-12-06T19:04:35.923Z,0.30
2022-12-06T19:07:04.664Z,0.20
2022-12-06T19:09:33.729Z,0.30
2022-12-06T19:12:03.899Z,0.30
2022-12-06T19:14:32.696Z,0.30
2022-12-06T19:17:01.478Z,0.30
2022-12-06T19:19:30.732Z,0.30
2022-12-06T19:21:59.483Z,0.30
2022-12-06T19:24:29.943Z,0.20
2022-12-06T19:27:01.964Z,0.30
2022-12-06T19:29:30.800Z,0.30
2022-12-06T19:31:59.336Z,0.40
2022-12-06T19:34:28.730Z,0.30
2022-12-06T19:36:58.646Z,0.30
2022-12-06T19:39:27.779Z,0.40
2022-12-06T19:42:14.692Z,0.40
2022-12-06T19:44:43.603Z,0.30
2022-12-06T19:47:12.493Z,0.30
2022-12-06T19:49:41.702Z,0.80
2022-12-06T19:52:10.731Z,0.40
2022-12-06T19:54:39.390Z,0.40
2022-12-06T19:57:07.519Z,0.30
2022-12-06T19:59:37.994Z,0.30
2022-12-06T20:02:07.361Z,0.30
2022-12-06T20:04:41.626Z,0.30
2022-12-06T20:07:10.990Z,0.30
2022-12-06T20:09:40.310Z,0.30
2022-12-06T20:12:08.840Z,0.40
2022-12-06T20:14:39.410Z,0.30
2022-12-06T20:17:12.829Z,0.30
2022-12-06T20:19:44.118Z,0.30
2022-12-06T20:22:13.290Z,0.40
2022-12-06T20:24:41.763Z,0.30
2022-12-06T20:27:10.569Z,0.20
2022-12-06T20:29:39.225Z,0.30
2022-12-06T20:32:07.908Z,0.30
2022-12-06T20:34:36.390Z,0.30
2022-12-06T20:37:06.793Z,0.30
2022-12-06T20:39:36.499Z,0.50
2022-12-06T20:42:07.653Z,0.30
2022-12-06T20:44:36.765Z,0.30
2022-12-06T20:47:05.619Z,0.30
2022-12-06T20:49:34.143Z,0.20
2022-12-06T20:52:03.769Z,0.30
2022-12-06T20:54:32.302Z,0.30
2022-12-06T20:57:01.157Z,0.30
2022-12-06T20:59:30.215Z,0.60
2022-12-06T21:01:59.117Z,0.40
2022-12-06T21:04:28.417Z,0.30
2022-12-06T21:06:57.279Z,0.30
2022-12-06T21:09:26.098Z,0.30
2022-12-06T21:11:54.594Z,0.30
2022-12-06T21:14:23.255Z,0.30
2022-12-06T21:16:51.786Z,0.30
2022-12-06T21:19:21.694Z,0.30
2022-12-06T21:21:54.735Z,0.30
2022-12-06T21:24:23.639Z,0.30
2022-12-06T21:26:51.953Z,0.30
2022-12-06T21:29:30.597Z,0.40
2022-12-06T21:32:02.426Z,0.30
2022-12-06T21:34:30.988Z,0.30
2022-12-06T21:36:59.791Z,0.40
2022-12-06T21:39:28.407Z,0.30
2022-12-06T21:41:57.149Z,0.30
2022-12-06T21:44:25.855Z,0.30
2022-12-06T21:46:55.244Z,0.30
2022-12-06T21:49:23.946Z,0.30
2022-12-06T21:52:00.236Z,0.20
2022-12-06T21:54:30.738Z,0.30
2022-12-06T21:56:59.340Z,0.20
2022-12-06T21:59:28.012Z,0.20
2022-12-06T22:01:57.141Z,0.20
2022-12-06T22:04:25.698Z,0.30
2022-12-06T22:06:53.982Z,0.30
2022-12-06T22:09:22.297Z,0.10
2022-12-06T22:11:50.633Z,0.20
2022-12-06T22:14:18.800Z,0.10
2022-12-06T22:16:47.166Z,0.20
2022-12-06T22:19:15.822Z,0.20
2022-12-06T22:21:44.498Z,0.20
2022-12-06T22:24:13.256Z,0.20
2022-12-06T22:26:41.997Z,0.30
2022-12-06T22:29:10.937Z,0.30
2022-12-06T22:31:39.742Z,0.30
2022-12-06T22:34:08.543Z,0.20
2022-12-06T22:36:37.312Z,0.30
2022-12-06T22:39:07.030Z,0.30
2022-12-06T22:41:35.678Z,0.30
2022-12-06T22:44:07.032Z,0.20
2022-12-06T22:46:37.692Z,0.20
2022-12-06T22:49:07.486Z,0.10
2022-12-06T22:51:38.939Z,0.20
2022-12-06T22:54:12.111Z,0.20
2022-12-06T22:56:48.056Z,0.20
2022-12-06T22:59:18.093Z,0.10
2022-12-06T23:01:46.785Z,0.20
2022-12-06T23:04:15.359Z,0.20
2022-12-06T23:06:44.111Z,0.20
2022-12-06T23:09:17.163Z,0.20
2022-12-06T23:11:45.722Z,0.20
2022-12-06T23:14:14.728Z,0.20
2022-12-06T23:16:44.563Z,0.30
2022-12-06T23:19:13.286Z,0.50
2022-12-06T23:21:43.319Z,0.30
2022-12-06T23:24:13.787Z,0.30
2022-12-06T23:26:45.653Z,0.20
2022-12-06T23:29:15.633Z,0.20
2022-12-06T23:31:46.048Z,0.20
2022-12-06T23:34:27.584Z,0.20
2022-12-06T23:36:55.891Z,0.20
2022-12-06T23:39:24.823Z,0.20
2022-12-06T23:41:53.711Z,0.20
2022-12-06T23:44:22.436Z,0.20
2022-12-06T23:46:51.180Z,0.20
2022-12-06T23:49:22.007Z,0.20
2022-12-06T23:51:51.053Z,0.20
2022-12-06T23:54:20.092Z,0.20
2022-12-06T23:56:48.954Z,0.20
2022-12-06T23:59:18.150Z,0.10
